Time;durP1;ratioP1;P1;durP2;ratioP2;P2;SDS_P1;SDS_P2;PMS_P1;PMS_P2;Temp;Humidity;BMP_temperature;BMP_pressure;BME280_temperature;BME280_humidity;BME280_pressure;Samples;Min_cycle;Max_cycle;Signal;HPM_P1;HPM_P2
2022/12/03 00:01:34;;;;;;;12.95;7.55;;;;;;;2.15;48.37;101792.72;5059162;28;20040;-72
2022/12/03 00:04:02;;;;;;;12.85;7.63;;;;;;;2.16;48.17;101794.47;5058441;28;20110;-72
2022/12/03 00:06:30;;;;;;;13.02;8.00;;;;;;;2.15;48.45;101786.44;5052896;28;20546;-72
2022/12/03 00:09:02;;;;;;;13.95;8.55;;;;;;;2.13;48.34;101789.19;5053769;28;20041;-72
2022/12/03 00:11:30;;;;;;;11.32;7.38;;;;;;;2.14;48.42;101774.75;5063981;28;20044;-72
2022/12/03 00:13:58;;;;;;;13.70;8.25;;;;;;;2.13;48.46;101786.47;5058766;28;20504;-72
2022/12/03 00:16:27;;;;;;;12.95;8.20;;;;;;;2.15;48.40;101789.13;5068200;28;20037;-72
2022/12/03 00:18:55;;;;;;;12.27;8.27;;;;;;;2.15;48.57;101791.84;5062435;28;20139;-72
2022/12/03 00:21:23;;;;;;;12.13;7.25;;;;;;;2.14;48.37;101787.38;5042396;28;20032;-72
2022/12/03 00:23:51;;;;;;;12.00;7.70;;;;;;;2.13;48.50;101783.78;5054768;28;20119;-72
2022/12/03 00:26:19;;;;;;;12.70;8.00;;;;;;;2.14;48.48;101777.44;5031758;28;20083;-72
2022/12/03 00:28:48;;;;;;;12.50;7.55;;;;;;;2.13;48.55;101786.47;5055046;28;20503;-72
2022/12/03 00:31:16;;;;;;;13.20;7.93;;;;;;;2.14;48.41;101785.53;5058079;28;20533;-72
2022/12/03 00:33:45;;;;;;;13.68;8.20;;;;;;;2.11;48.33;101780.25;5062969;28;20098;-72
2022/12/03 00:36:13;;;;;;;11.93;7.13;;;;;;;2.14;48.45;101776.56;5060170;28;20390;-73
2022/12/03 00:38:41;;;;;;;12.25;7.50;;;;;;;2.13;48.45;101775.69;5065596;28;20136;-72
2022/12/03 00:41:09;;;;;;;13.50;8.05;;;;;;;2.13;48.48;101770.28;5054844;28;20051;-72
2022/12/03 00:43:37;;;;;;;12.50;7.88;;;;;;;2.10;48.42;101767.69;5057456;28;20421;-72
2022/12/03 00:46:05;;;;;;;12.75;8.20;;;;;;;2.11;48.57;101763.16;5066264;28;20417;-72
2022/12/03 00:48:34;;;;;;;13.20;8.02;;;;;;;2.10;48.47;101770.38;5060872;28;20041;-72
2022/12/03 00:51:04;;;;;;;12.55;8.27;;;;;;;2.09;48.42;101767.72;5055079;28;20044;-72
2022/12/03 00:53:31;;;;;;;13.60;8.25;;;;;;;2.09;48.45;101762.34;5060980;28;20449;-72
2022/12/03 00:56:00;;;;;;;13.32;7.72;;;;;;;2.10;48.51;101773.09;5037923;28;20044;-72
2022/12/03 00:58:28;;;;;;;11.60;7.40;;;;;;;2.11;48.44;101776.66;5060505;28;20521;-71
2022/12/03 01:00:56;;;;;;;12.02;7.88;;;;;;;2.10;48.58;101772.19;5057577;28;20048;-72
2022/12/03 01:03:24;;;;;;;12.38;7.65;;;;;;;2.11;48.50;101768.56;5060849;28;20062;-72
2022/12/03 01:05:52;;;;;;;13.00;7.80;;;;;;;2.11;48.55;101765.88;5064970;28;20091;-72
2022/12/03 01:08:21;;;;;;;10.82;7.50;;;;;;;2.13;48.59;101770.28;5061119;28;20037;-72
2022/12/03 01:10:48;;;;;;;12.77;7.55;;;;;;;2.12;48.48;101781.13;5055223;28;20078;-73
2022/12/03 01:13:16;;;;;;;11.50;7.30;;;;;;;2.12;48.58;101776.63;5059713;28;20045;-72
2022/12/03 01:15:44;;;;;;;12.43;7.60;;;;;;;2.13;48.51;101785.59;5038779;28;20436;-72
2022/12/03 01:18:12;;;;;;;13.00;7.53;;;;;;;2.14;48.57;101785.53;5057612;28;20036;-72
2022/12/03 01:20:40;;;;;;;13.30;8.07;;;;;;;2.12;48.63;101782.00;5058090;28;20045;-72
2022/12/03 01:23:08;;;;;;;12.07;7.95;;;;;;;2.13;48.43;101777.50;5059446;28;20051;-72
2022/12/03 01:25:37;;;;;;;13.80;7.78;;;;;;;2.11;48.55;101772.16;5061039;28;20049;-72
2022/12/03 01:28:05;;;;;;;14.93;8.77;;;;;;;2.08;48.57;101785.75;5031366;28;20072;-72
2022/12/03 01:32:15;;;;;;;14.05;8.43;;;;;;;2.08;48.59;101777.66;5062976;28;20471;-72
2022/12/03 01:33:20;;;;;;;11.80;8.00;;;;;;;2.08;48.67;101780.34;5059914;28;20090;-72
2022/12/03 01:35:48;;;;;;;14.40;8.55;;;;;;;2.09;48.56;101781.22;5058379;28;20055;-72
2022/12/03 01:38:16;;;;;;;12.88;8.32;;;;;;;2.08;48.67;101777.66;5040092;28;20067;-72
2022/12/03 01:40:46;;;;;;;13.10;8.32;;;;;;;2.08;48.65;101779.50;5060163;28;20128;-72
2022/12/03 01:43:13;;;;;;;13.20;8.05;;;;;;;2.07;48.60;101783.13;5057356;28;20162;-72
2022/12/03 01:45:41;;;;;;;13.27;8.45;;;;;;;2.05;48.61;101772.38;5063728;28;20036;-72
2022/12/03 01:48:14;;;;;;;12.38;8.02;;;;;;;2.07;48.62;101772.34;5066125;28;20107;-72
2022/12/03 01:50:43;;;;;;;14.02;7.93;;;;;;;2.04;48.70;101781.44;5064239;28;20124;-72
2022/12/03 01:53:15;;;;;;;14.10;8.43;;;;;;;2.06;48.72;101784.06;5059049;28;20032;-72
2022/12/03 01:55:43;;;;;;;11.85;7.38;;;;;;;2.04;49.06;101783.25;5062386;28;20127;-72
2022/12/03 01:58:23;;;;;;;12.70;7.57;;;;;;;2.06;48.78;101770.56;5055138;28;20040;-72
2022/12/03 02:00:51;;;;;;;12.43;8.07;;;;;;;2.05;48.91;101776.91;5067246;28;20597;-72
2022/12/03 02:03:22;;;;;;;14.82;8.95;;;;;;;2.04;48.77;101778.72;5062183;28;20094;-72
2022/12/03 02:05:51;;;;;;;14.18;8.95;;;;;;;2.05;48.88;101775.09;5061985;28;20584;-72
2022/12/03 02:08:30;;;;;;;13.90;8.50;;;;;;;2.05;48.76;101783.19;5062563;28;20044;-72
2022/12/03 02:11:01;;;;;;;13.80;8.98;;;;;;;2.02;48.85;101786.00;5057087;28;20541;-72
2022/12/03 02:13:31;;;;;;;13.82;8.60;;;;;;;2.04;48.95;101775.13;5063000;28;20044;-72
2022/12/03 02:15:59;;;;;;;14.07;8.20;;;;;;;2.02;48.99;101780.59;5069465;28;20048;-72
2022/12/03 02:18:27;;;;;;;13.13;7.75;;;;;;;2.03;49.01;101778.78;5068731;28;20079;-72
2022/12/03 02:21:03;;;;;;;13.60;8.70;;;;;;;2.05;48.93;101780.50;5061972;28;20045;-73
2022/12/03 02:23:40;;;;;;;12.82;8.15;;;;;;;2.05;48.80;101772.38;5078771;22;20040;-83
2022/12/03 02:26:10;;;;;;;13.75;7.63;;;;;;;2.06;48.86;101774.16;5052102;28;20040;-82
2022/12/03 02:28:38;;;;;;;13.63;8.68;;;;;;;2.04;49.18;101767.94;5075564;28;20098;-83
2022/12/03 02:31:06;;;;;;;13.90;8.80;;;;;;;2.07;49.25;101769.63;5060453;28;20071;-84
2022/12/03 02:33:35;;;;;;;13.60;8.48;;;;;;;2.08;49.13;101768.69;5060926;28;20094;-85
2022/12/03 02:36:03;;;;;;;14.52;8.38;;;;;;;2.09;48.87;101768.63;4967452;28;20040;-85
2022/12/03 02:38:36;;;;;;;14.95;8.35;;;;;;;2.09;48.74;101759.63;5067963;28;20132;-82
2022/12/03 02:41:08;;;;;;;;;;;;;;;1.89;49.47;101755.00;5047238;28;20406;-85
2022/12/03 02:43:37;;;;;;;14.90;8.18;;;;;;;2.07;49.00;101756.13;5053459;28;19928;-86
2022/12/03 02:46:07;;;;;;;14.65;8.93;;;;;;;2.09;48.92;101755.13;5048510;28;20193;-84
2022/12/03 02:48:38;;;;;;;13.25;8.02;;;;;;;2.11;48.88;101749.66;5072133;28;20483;-84
2022/12/03 02:51:09;;;;;;;14.15;8.10;;;;;;;2.11;48.98;101755.06;5054077;28;20665;-84
2022/12/03 02:53:41;;;;;;;12.98;7.97;;;;;;;2.12;48.89;101749.63;5087815;28;20051;-84
2022/12/03 02:56:12;;;;;;;13.80;8.20;;;;;;;2.09;48.98;101754.22;5087903;28;20055;-84
2022/12/03 02:58:43;;;;;;;14.52;8.27;;;;;;;2.11;48.87;101738.88;5084835;28;20103;-85
2022/12/03 03:01:15;;;;;;;13.10;8.07;;;;;;;2.11;48.70;101742.44;5070214;28;20041;-84
2022/12/03 03:03:45;;;;;;;13.15;8.07;;;;;;;2.09;49.11;101743.44;5061439;28;20116;-83
2022/12/03 03:06:15;;;;;;;12.75;7.40;;;;;;;2.10;48.96;101737.97;5052938;28;20525;-83
2022/12/03 03:08:43;;;;;;;13.88;7.80;;;;;;;2.10;49.00;101739.78;5045362;28;20056;-82
2022/12/03 03:11:12;;;;;;;14.15;8.25;;;;;;;2.10;49.19;101745.19;5071798;28;20052;-83
2022/12/03 03:13:41;;;;;;;14.57;8.07;;;;;;;2.11;49.11;101742.44;5087575;28;20040;-83
2022/12/03 03:16:10;;;;;;;13.65;8.25;;;;;;;2.11;49.08;101746.97;5072443;28;20041;-83
2022/12/03 03:18:38;;;;;;;13.52;8.10;;;;;;;2.10;49.12;101740.69;5074470;28;21231;-83
2022/12/03 03:21:06;;;;;;;14.02;8.65;;;;;;;2.10;49.09;101740.69;5054006;28;20045;-83
2022/12/03 03:23:35;;;;;;;13.10;7.75;;;;;;;2.11;49.20;101734.34;5041123;28;20055;-84
2022/12/03 03:26:05;;;;;;;15.75;8.95;;;;;;;2.12;49.13;101741.50;5055108;28;20098;-84
2022/12/03 03:28:37;;;;;;;14.10;8.73;;;;;;;2.11;49.37;101744.25;5079279;28;20044;-84
2022/12/03 03:31:08;;;;;;;15.40;9.23;;;;;;;2.10;48.91;101737.97;5039481;28;20063;-85
2022/12/03 03:33:39;;;;;;;14.32;8.93;;;;;;;2.09;49.10;101733.50;5040292;28;20044;-85
2022/12/03 03:36:08;;;;;;;15.05;8.48;;;;;;;2.09;49.05;101736.22;5052369;28;20045;-84
2022/12/03 03:38:36;;;;;;;14.70;8.65;;;;;;;2.08;49.22;101733.59;5050319;28;20427;-85
2022/12/03 03:41:07;;;;;;;15.32;8.80;;;;;;;2.08;49.19;101737.16;5056971;28;20059;-85
2022/12/03 03:43:38;;;;;;;14.52;8.55;;;;;;;2.07;49.19;101731.84;5054344;28;20503;-84
2022/12/03 03:46:08;;;;;;;16.60;9.13;;;;;;;2.06;49.31;101728.25;4994396;28;20040;-82
2022/12/03 03:48:36;;;;;;;14.85;8.68;;;;;;;2.04;49.35;101731.94;5007091;28;20158;-84
2022/12/03 03:51:08;;;;;;;16.38;9.02;;;;;;;2.05;49.32;101739.09;4991390;28;20137;-84
2022/12/03 03:53:38;;;;;;;13.85;8.25;;;;;;;2.05;49.30;101726.50;5005359;28;20437;-85
2022/12/03 03:56:08;;;;;;;14.70;8.43;;;;;;;2.05;49.38;101731.88;5011439;28;20490;-85
2022/12/03 03:58:36;;;;;;;16.70;8.63;;;;;;;2.04;49.27;101723.84;4996037;28;20065;-85
2022/12/03 04:01:04;;;;;;;14.50;8.25;;;;;;;2.04;49.36;101727.41;4994040;28;20416;-83
2022/12/03 04:03:34;;;;;;;15.55;8.73;;;;;;;2.05;49.47;101731.88;5023000;28;20046;-84
2022/12/03 04:06:02;;;;;;;15.20;8.32;;;;;;;2.05;49.44;101737.28;5022393;28;20390;-84
2022/12/03 04:08:30;;;;;;;15.77;8.95;;;;;;;2.05;49.62;101725.59;4996796;28;20053;-84
2022/12/03 04:13:43;;;;;;;13.57;8.05;;;;;;;2.05;49.55;101734.59;4980853;28;20054;-83
2022/12/03 04:16:11;;;;;;;13.85;8.18;;;;;;;2.06;49.67;101725.56;5035900;28;20056;-83
2022/12/03 04:18:42;;;;;;;13.85;8.23;;;;;;;2.06;49.55;101730.94;4993372;28;20047;-82
2022/12/03 04:24:13;;;;;;;16.30;9.00;;;;;;;2.07;49.45;101727.31;4954907;28;20266;-82
2022/12/03 04:29:27;;;;;;;17.42;8.40;;;;;;;2.05;49.41;101712.09;5060311;27;20122;-82
2022/12/03 04:37:28;;;;;;;13.82;8.68;;;;;;;2.02;49.19;101723.00;4984788;28;20038;-82
2022/12/03 04:39:56;;;;;;;16.23;8.70;;;;;;;2.02;49.32;101723.91;5001692;28;20041;-82
2022/12/03 04:42:24;;;;;;;14.57;8.35;;;;;;;2.01;49.33;101714.03;4987887;28;20420;-82
2022/12/03 04:44:52;;;;;;;17.55;9.18;;;;;;;2.00;49.05;101714.13;5019298;28;20038;-84
2022/12/03 04:47:21;;;;;;;16.50;9.02;;;;;;;2.00;49.32;101717.66;5031861;28;20492;-84
2022/12/03 04:49:52;;;;;;;16.52;8.70;;;;;;;1.99;49.37;101715.94;5020765;28;20038;-83
2022/12/03 04:52:21;;;;;;;15.02;8.73;;;;;;;1.99;49.18;101709.66;5073118;27;20052;-83
2022/12/03 04:54:49;;;;;;;17.90;8.48;;;;;;;1.99;49.27;101712.34;5009734;28;20040;-82
2022/12/03 04:57:17;;;;;;;15.23;8.30;;;;;;;1.98;49.25;101715.97;4994337;28;20047;-82
2022/12/03 04:59:45;;;;;;;15.73;8.02;;;;;;;1.98;49.31;101706.06;4987441;28;20041;-82
2022/12/03 05:02:13;;;;;;;16.20;8.65;;;;;;;1.99;49.30;101709.66;5024399;28;20071;-82
2022/12/03 05:04:41;;;;;;;16.98;8.77;;;;;;;1.98;49.21;101710.59;4993303;28;20061;-82
2022/12/03 05:07:11;;;;;;;14.20;7.60;;;;;;;1.98;48.91;101706.06;4993502;28;20141;-82
2022/12/03 05:09:39;;;;;;;14.77;8.07;;;;;;;1.98;49.14;101706.06;5048331;28;20057;-82
2022/12/03 05:12:07;;;;;;;15.45;7.80;;;;;;;1.97;48.97;101707.00;5044693;27;20446;-83
2022/12/03 05:14:35;;;;;;;16.58;8.63;;;;;;;1.97;49.14;101698.91;5006224;28;20435;-82
2022/12/03 05:17:03;;;;;;;18.13;8.63;;;;;;;1.96;49.01;101705.25;5050582;28;20082;-83
2022/12/03 05:22:18;;;;;;;14.57;7.80;;;;;;;1.95;49.14;101710.69;5007113;28;20137;-82
2022/12/03 05:24:46;;;;;;;17.10;8.57;;;;;;;1.93;49.13;101708.03;5001018;28;20069;-81
2022/12/03 05:27:17;;;;;;;17.40;8.23;;;;;;;1.94;48.86;101707.09;5024601;28;20383;-82
2022/12/03 05:29:50;;;;;;;15.77;7.25;;;;;;;1.93;49.15;101702.66;5013227;28;20065;-82
2022/12/03 05:32:18;;;;;;;14.07;7.78;;;;;;;1.94;49.19;101711.63;4998836;28;20263;-84
2022/12/03 05:34:46;;;;;;;15.38;7.97;;;;;;;1.94;49.14;101706.22;4998984;28;20045;-83
2022/12/03 05:37:14;;;;;;;15.35;7.70;;;;;;;1.94;49.00;101712.50;5000935;28;20056;-84
2022/12/03 05:39:43;;;;;;;16.20;8.02;;;;;;;1.95;49.08;101702.59;5004193;28;20046;-86
2022/12/03 05:44:56;;;;;;;17.73;8.65;;;;;;;1.91;49.06;101703.66;5034530;28;20050;-85
2022/12/03 05:47:24;;;;;;;15.77;8.43;;;;;;;1.92;48.86;101703.59;4996788;28;20056;-83
2022/12/03 05:49:52;;;;;;;18.17;8.80;;;;;;;1.92;48.89;101700.88;5004671;28;20054;-82
2022/12/03 05:52:20;;;;;;;15.90;7.82;;;;;;;1.92;48.86;101700.03;5046721;28;20042;-83
2022/12/03 05:54:49;;;;;;;16.83;8.50;;;;;;;1.91;48.80;101696.44;5002597;28;20067;-83
2022/12/03 05:57:18;;;;;;;19.08;8.70;;;;;;;1.90;48.83;101691.09;4995779;28;20053;-83
2022/12/03 05:59:45;;;;;;;17.27;8.10;;;;;;;1.90;48.79;101696.50;5020010;28;20428;-84
2022/12/03 06:02:13;;;;;;;15.70;8.05;;;;;;;1.90;48.76;101697.38;5035086;27;20428;-83
2022/12/03 06:04:42;;;;;;;16.15;8.15;;;;;;;1.89;48.91;101698.31;5027063;28;20515;-84
2022/12/03 06:07:10;;;;;;;17.23;8.75;;;;;;;1.87;48.88;101692.97;5027590;27;20164;-82
2022/12/03 06:09:41;;;;;;;14.63;7.88;;;;;;;1.88;48.74;101693.84;4992471;28;20081;-83
2022/12/03 06:12:10;;;;;;;15.43;7.70;;;;;;;1.88;49.00;101700.13;5026050;28;20341;-83
2022/12/03 06:14:38;;;;;;;17.30;7.70;;;;;;;1.86;48.97;101696.59;5061485;28;20032;-83
2022/12/03 06:17:06;;;;;;;16.70;8.55;;;;;;;1.86;48.70;101696.59;5045078;28;20537;-84
2022/12/03 06:19:34;;;;;;;14.48;7.63;;;;;;;1.88;48.81;101693.84;5008843;28;20532;-84
2022/12/03 06:22:02;;;;;;;17.73;8.60;;;;;;;1.86;48.83;101702.00;5013896;28;20035;-83
2022/12/03 06:24:30;;;;;;;17.88;8.25;;;;;;;1.87;49.05;101708.28;5004313;28;20496;-85
2022/12/03 06:26:58;;;;;;;16.23;8.23;;;;;;;1.86;48.82;101702.00;4996257;28;20389;-82
2022/12/03 06:29:27;;;;;;;16.90;7.82;;;;;;;1.86;48.70;101695.72;4992643;28;20065;-82
2022/12/03 06:31:55;;;;;;;17.08;8.77;;;;;;;1.85;48.87;101704.75;5045687;27;20573;-82
2022/12/03 06:34:23;;;;;;;17.55;8.40;;;;;;;1.85;48.83;101699.34;5024297;28;20069;-82
2022/12/03 06:36:51;;;;;;;16.35;8.02;;;;;;;1.85;48.68;101697.53;5040952;27;20054;-82
2022/12/03 06:39:21;;;;;;;17.80;9.65;;;;;;;1.84;48.84;101694.91;4996831;28;20508;-83
2022/12/03 06:41:49;;;;;;;18.27;8.30;;;;;;;1.82;48.73;101691.41;4993557;28;20611;-83
2022/12/03 06:44:17;;;;;;;20.50;9.05;;;;;;;1.83;48.75;101694.03;5007990;28;20037;-81
2022/12/03 06:46:46;;;;;;;19.50;9.68;;;;;;;1.83;48.76;101698.56;5017401;28;20070;-81
2022/12/03 06:49:14;;;;;;;16.08;9.13;;;;;;;1.81;48.82;101698.63;4996709;28;20081;-82
2022/12/03 06:51:42;;;;;;;18.00;9.13;;;;;;;1.77;48.76;101691.56;4987177;28;20518;-81
2022/12/03 06:54:10;;;;;;;19.10;9.50;;;;;;;1.79;48.72;101691.50;5023254;28;20141;-82
2022/12/03 06:56:38;;;;;;;16.65;8.75;;;;;;;1.77;48.91;101687.97;4990823;28;20319;-82
2022/12/03 06:59:13;;;;;;;17.30;9.50;;;;;;;1.76;48.79;101688.91;5013308;28;20045;-83
2022/12/03 07:01:40;;;;;;;16.83;8.65;;;;;;;1.76;48.77;101688.91;4992844;28;20047;-84
2022/12/03 07:04:10;;;;;;;17.95;9.25;;;;;;;1.77;48.72;101685.28;4993975;28;20435;-83
2022/12/03 07:06:38;;;;;;;16.33;8.90;;;;;;;1.74;48.78;101690.81;5000444;28;20034;-83
2022/12/03 07:09:06;;;;;;;18.70;9.60;;;;;;;1.72;48.71;101692.69;4990293;28;20050;-83
2022/12/03 07:11:39;;;;;;;19.58;9.68;;;;;;;1.72;48.86;101689.97;4992129;28;20053;-82
2022/12/03 07:14:09;;;;;;;;;;;;;;;1.51;48.98;101698.88;5027324;27;20041;-82
2022/12/03 07:16:39;;;;;;;18.08;8.05;;;;;;;1.66;48.55;101695.63;4990053;28;19944;-83
2022/12/03 07:19:07;;;;;;;15.38;8.18;;;;;;;1.68;48.54;101693.72;4988435;28;20043;-84
2022/12/03 07:21:37;;;;;;;15.68;8.15;;;;;;;1.68;48.57;101693.72;5019138;28;20042;-82
2022/12/03 07:24:05;;;;;;;15.90;8.32;;;;;;;1.67;48.62;101689.28;5022356;28;20040;-83
2022/12/03 07:26:35;;;;;;;15.77;8.13;;;;;;;1.65;48.76;101686.63;5036352;28;20046;-83
2022/12/03 07:29:03;;;;;;;16.95;8.60;;;;;;;1.65;48.63;101688.44;4968938;28;20082;-84
2022/12/03 07:31:31;;;;;;;16.17;8.07;;;;;;;1.65;48.44;101683.06;5050212;28;20091;-83
2022/12/03 07:34:00;;;;;;;17.77;8.35;;;;;;;1.64;48.42;101692.97;5005038;28;20042;-83
2022/12/03 07:36:28;;;;;;;18.08;8.93;;;;;;;1.62;48.36;101677.75;5021526;28;20036;-83
2022/12/03 07:38:57;;;;;;;17.70;8.68;;;;;;;1.63;48.49;101684.91;5019244;28;20048;-84
2022/12/03 07:41:25;;;;;;;17.17;8.30;;;;;;;1.60;48.49;101685.03;5041307;28;20474;-81
2022/12/03 07:43:53;;;;;;;19.08;8.90;;;;;;;1.60;48.49;101683.22;4987539;28;20050;-84
2022/12/03 07:46:21;;;;;;;15.35;8.23;;;;;;;1.58;48.45;101687.81;5029227;27;20039;-82
2022/12/03 07:48:49;;;;;;;16.63;8.40;;;;;;;1.58;48.60;101689.63;5044504;27;20070;-85
2022/12/03 07:51:17;;;;;;;18.23;8.23;;;;;;;1.58;48.43;101695.03;5022816;28;20538;-84
2022/12/03 07:53:45;;;;;;;18.05;8.45;;;;;;;1.56;48.39;101692.38;4968597;28;20137;-84
2022/12/03 07:56:14;;;;;;;15.68;8.00;;;;;;;1.58;48.46;101695.91;5015651;28;20066;-84
2022/12/03 07:58:42;;;;;;;15.57;8.10;;;;;;;1.56;48.69;101694.19;5014037;28;20046;-83
2022/12/03 08:01:10;;;;;;;18.92;9.30;;;;;;;1.57;48.72;101696.84;5013428;28;20042;-85
2022/12/03 08:03:38;;;;;;;18.17;9.25;;;;;;;1.56;48.77;101700.47;4993661;28;20043;-85
2022/12/03 08:06:07;;;;;;;18.48;9.10;;;;;;;1.58;48.71;101693.19;4991049;28;20050;-83
2022/12/03 08:08:35;;;;;;;15.18;8.20;;;;;;;1.58;48.48;101693.19;4977185;28;20070;-84
2022/12/03 08:11:04;;;;;;;17.52;8.07;;;;;;;1.58;48.79;101693.19;4993280;28;20533;-84
2022/12/03 08:13:35;;;;;;;13.48;7.60;;;;;;;1.61;48.43;101686.78;4998101;28;20042;-84
2022/12/03 08:16:15;;;;;;;16.15;7.97;;;;;;;1.63;48.41;101684.91;5015215;28;20044;-84
2022/12/03 08:18:45;;;;;;;18.38;8.07;;;;;;;1.61;48.75;101684.97;5046801;27;20144;-83
2022/12/03 08:21:16;;;;;;;16.95;8.13;;;;;;;1.63;48.70;101687.63;5036792;28;20544;-83
2022/12/03 08:23:44;;;;;;;19.10;9.10;;;;;;;1.62;48.72;101694.84;4985441;28;20549;-82
2022/12/03 08:26:20;;;;;;;18.10;8.48;;;;;;;1.65;48.74;101694.72;4991157;28;20066;-83
2022/12/03 08:28:52;;;;;;;15.75;8.35;;;;;;;1.62;48.69;101692.13;4999960;28;20042;-85
2022/12/03 08:31:24;;;;;;;14.67;8.33;;;;;;;1.62;48.81;101689.44;5010005;28;20052;-84
2022/12/03 08:34:15;;;;;;;16.88;8.27;;;;;;;1.65;48.59;101686.63;5001752;28;20106;-84
2022/12/03 08:36:43;;;;;;;;;;;;;;;1.42;49.01;101687.47;5000747;28;20151;-83
2022/12/03 08:39:26;;;;;;;15.80;7.50;;;;;;;1.62;48.37;101692.13;5026607;28;19946;-84
2022/12/03 08:44:45;;;;;;;16.80;8.70;;;;;;;1.64;48.84;101690.28;5017257;28;20053;-83
2022/12/03 08:47:18;;;;;;;17.30;9.02;;;;;;;1.66;48.62;101695.63;4997255;28;20051;-84
2022/12/03 08:49:51;;;;;;;18.65;8.60;;;;;;;1.65;48.79;101697.44;5042748;28;20038;-84
2022/12/03 08:52:21;;;;;;;18.90;9.15;;;;;;;1.65;48.84;101694.72;5062307;28;20043;-82
2022/12/03 08:54:53;;;;;;;17.65;8.63;;;;;;;1.69;48.90;101700.88;5000971;28;20061;-84
2022/12/03 08:57:26;;;;;;;16.73;8.43;;;;;;;1.70;48.63;101708.91;5000735;28;20632;-82
2022/12/03 08:59:59;;;;;;;17.38;8.88;;;;;;;1.70;48.79;101703.53;5023581;28;20470;-83
2022/12/03 09:02:33;;;;;;;17.38;8.73;;;;;;;1.74;48.77;101701.59;5020020;28;20236;-84
2022/12/03 09:05:13;;;;;;;17.20;8.60;;;;;;;1.75;48.59;101693.41;5022529;28;20054;-84
2022/12/03 09:07:41;;;;;;;16.85;8.52;;;;;;;1.76;49.14;101699.69;4996650;28;20047;-83
2022/12/03 09:10:09;;;;;;;17.85;9.07;;;;;;;1.79;48.84;101702.31;5003124;28;20050;-83
2022/12/03 09:12:40;;;;;;;17.55;8.57;;;;;;;1.81;49.24;101698.63;4994272;28;20066;-84
2022/12/03 09:15:11;;;;;;;16.42;8.90;;;;;;;1.86;48.99;101701.13;5009243;28;20085;-83
2022/12/03 09:17:39;;;;;;;17.17;8.43;;;;;;;1.88;49.35;101699.25;5036050;28;20030;-82
2022/12/03 09:20:08;;;;;;;16.90;8.48;;;;;;;1.93;49.12;101704.47;5001794;28;20050;-83
2022/12/03 09:22:35;;;;;;;16.10;8.70;;;;;;;1.94;49.04;101698.13;5001064;28;20042;-81
2022/12/03 09:25:04;;;;;;;17.13;8.48;;;;;;;1.98;48.83;101694.38;5030835;28;20176;-83
2022/12/03 09:27:32;;;;;;;15.10;8.18;;;;;;;1.98;48.73;101697.97;4985697;28;20509;-82
2022/12/03 09:30:00;;;;;;;17.05;8.32;;;;;;;2.01;48.74;101691.53;5033368;28;20041;-83
2022/12/03 09:32:29;;;;;;;17.25;8.32;;;;;;;2.03;48.66;101695.97;4994009;28;20497;-84
2022/12/03 09:34:57;;;;;;;15.77;7.85;;;;;;;2.03;48.65;101695.97;5025429;28;20414;-82
2022/12/03 09:37:25;;;;;;;15.98;8.05;;;;;;;2.05;48.69;101701.31;5021008;28;20074;-83
2022/12/03 09:39:53;;;;;;;16.30;8.02;;;;;;;2.06;48.55;101698.56;5082792;28;20041;-82
2022/12/03 09:42:21;;;;;;;16.38;8.57;;;;;;;2.06;48.71;101703.94;5021640;28;20400;-83
2022/12/03 09:44:49;;;;;;;18.42;8.75;;;;;;;2.05;48.56;101688.69;5005787;28;20050;-83
2022/12/03 09:47:17;;;;;;;16.38;8.52;;;;;;;2.07;48.58;101694.91;4995290;28;20038;-83
2022/12/03 09:49:46;;;;;;;16.38;8.50;;;;;;;2.10;48.30;101689.38;4997377;28;20043;-83
2022/12/03 09:52:22;;;;;;;17.30;8.52;;;;;;;2.11;48.35;101690.25;5057989;28;20420;-83
2022/12/03 09:54:51;;;;;;;18.02;9.32;;;;;;;2.10;48.42;101688.50;4991766;28;20499;-84
2022/12/03 09:57:20;;;;;;;16.80;8.32;;;;;;;2.11;48.41;101679.47;5021861;28;20036;-83
2022/12/03 09:59:48;;;;;;;17.23;8.27;;;;;;;2.11;48.51;101685.75;5055313;27;20034;-83
2022/12/03 10:02:21;;;;;;;15.85;8.23;;;;;;;2.14;48.25;101687.44;5028140;28;20044;-83
2022/12/03 10:04:50;;;;;;;17.23;8.73;;;;;;;2.12;48.43;101676.69;4991145;28;20408;-83
2022/12/03 10:07:19;;;;;;;16.52;8.70;;;;;;;2.12;48.21;101682.09;5005722;28;20396;-81
2022/12/03 10:09:47;;;;;;;17.02;9.35;;;;;;;2.13;48.39;101677.59;5052831;28;20690;-83
2022/12/03 10:12:22;;;;;;;19.48;9.52;;;;;;;2.13;48.11;101678.47;5051699;28;20048;-82
2022/12/03 10:14:52;;;;;;;18.20;9.77;;;;;;;2.13;48.31;101675.78;5036558;28;20050;-83
2022/12/03 10:17:21;;;;;;;20.38;10.25;;;;;;;2.11;48.38;101671.34;5032619;28;20044;-82
2022/12/03 10:19:52;;;;;;;21.20;9.90;;;;;;;2.09;48.20;101666.00;4996539;28;20050;-83
2022/12/03 10:22:20;;;;;;;17.95;8.80;;;;;;;2.09;48.37;101652.50;5003442;28;20046;-83
2022/12/03 10:25:06;;;;;;;18.98;9.63;;;;;;;2.10;47.58;101653.41;5002751;28;20126;-82
2022/12/03 10:27:34;;;;;;;18.50;9.70;;;;;;;2.06;48.42;101649.94;5048424;27;20065;-82
2022/12/03 10:30:11;;;;;;;18.48;9.50;;;;;;;2.06;48.16;101652.66;5017546;28;20040;-83
2022/12/03 10:32:41;;;;;;;19.27;9.93;;;;;;;2.05;48.30;101650.88;5037254;28;20046;-84
2022/12/03 10:35:13;;;;;;;20.48;9.63;;;;;;;2.07;48.09;101643.63;4979902;28;20054;-83
2022/12/03 10:37:57;;;;;;;19.00;9.30;;;;;;;2.07;47.85;101642.72;4999482;28;20066;-82
2022/12/03 10:40:27;;;;;;;17.40;8.80;;;;;;;2.07;48.28;101631.94;5032278;28;20052;-84
2022/12/03 10:43:13;;;;;;;18.33;9.20;;;;;;;2.09;47.73;101638.13;5004896;28;20517;-83
2022/12/03 10:45:41;;;;;;;18.05;9.68;;;;;;;2.05;48.46;101623.88;5031732;27;20055;-83
2022/12/03 10:48:14;;;;;;;17.48;8.70;;;;;;;2.09;48.06;101625.50;5031567;28;20427;-84
2022/12/03 10:50:55;;;;;;;18.35;9.35;;;;;;;2.10;47.97;101619.16;5096877;27;20044;-83
2022/12/03 10:53:27;;;;;;;19.80;9.40;;;;;;;2.10;48.41;101616.47;4996561;28;20067;-84
2022/12/03 10:55:58;;;;;;;18.17;9.65;;;;;;;2.10;48.14;101610.19;5028334;27;20054;-83
2022/12/03 10:58:28;;;;;;;17.40;9.75;;;;;;;2.11;48.19;101610.13;5002457;28;20084;-84
2022/12/03 11:01:02;;;;;;;16.67;8.77;;;;;;;2.12;48.08;101609.19;5028181;28;20097;-84
2022/12/03 11:03:34;;;;;;;21.20;10.50;;;;;;;2.11;48.10;101596.63;5021644;28;20051;-84
2022/12/03 11:06:04;;;;;;;17.52;9.77;;;;;;;2.11;48.17;101598.44;5044167;28;20036;-84
2022/12/03 11:08:34;;;;;;;16.40;9.18;;;;;;;2.14;48.26;101601.03;5031839;28;20063;-82
2022/12/03 11:11:05;;;;;;;18.08;9.55;;;;;;;2.15;48.32;101597.41;4991386;28;20042;-83
2022/12/03 11:13:53;;;;;;;17.63;9.63;;;;;;;2.15;47.76;101595.59;4993921;28;20045;-83
2022/12/03 11:17:11;;;;;;;17.90;9.13;;;;;;;2.13;47.65;101594.75;5076077;28;20044;-84
2022/12/03 11:19:58;;;;;;;17.42;8.73;;;;;;;2.13;48.01;101592.06;4993935;28;20505;-83
2022/12/03 11:22:40;;;;;;;17.55;8.32;;;;;;;2.15;47.92;101590.19;5043936;28;20131;-83
2022/12/03 11:25:35;;;;;;;16.15;8.82;;;;;;;2.14;47.55;101596.53;5013787;28;20078;-83
2022/12/03 11:28:53;;;;;;;15.60;8.60;;;;;;;2.16;48.07;101589.25;4993653;28;20057;-83
2022/12/03 11:31:40;;;;;;;16.60;8.02;;;;;;;2.16;47.69;101582.97;4980412;28;20181;-82
2022/12/03 11:34:42;;;;;;;17.33;8.73;;;;;;;2.15;47.92;101584.78;5047484;28;20566;-84
2022/12/03 11:37:27;;;;;;;15.38;8.18;;;;;;;2.16;47.95;101577.56;4998954;28;20527;-84
2022/12/03 11:40:02;;;;;;;18.17;8.88;;;;;;;2.18;48.09;101575.66;5028144;28;20120;-84
2022/12/03 11:42:38;;;;;;;18.88;9.65;;;;;;;2.19;47.85;101566.59;5010621;28;20144;-84
2022/12/03 11:45:18;;;;;;;17.17;9.35;;;;;;;2.22;48.05;101574.59;4996021;28;20065;-84
2022/12/03 11:47:59;;;;;;;17.15;8.75;;;;;;;2.22;48.41;101566.50;5030066;27;20074;-83
2022/12/03 11:50:29;;;;;;;15.20;8.02;;;;;;;2.23;48.35;101561.03;5005653;28;20049;-84
2022/12/03 11:53:14;;;;;;;18.27;9.25;;;;;;;2.25;47.90;101564.53;5055026;27;20390;-83
2022/12/03 11:55:51;;;;;;;16.63;9.05;;;;;;;2.29;48.00;101556.31;5011822;28;20395;-84
2022/12/03 11:58:24;;;;;;;16.83;9.65;;;;;;;2.26;48.18;101549.19;4994371;28;20515;-83
2022/12/03 12:00:53;;;;;;;19.02;10.13;;;;;;;2.25;48.22;101551.03;5058637;28;20039;-83
2022/12/03 12:03:24;;;;;;;18.75;10.15;;;;;;;2.26;48.29;101554.59;4991397;28;20058;-83
2022/12/03 12:06:03;;;;;;;18.30;9.90;;;;;;;2.29;47.58;101553.59;5026142;28;20048;-86